Nautilus — UBJK — position and weather

sailwx.info

Track history (hours):
 
Tides and Currents Weather Stations Pressure Air Temp Water Temp Dewpoint Dewpoint Depression Visibility Wind Speed Wind Dir Waves Ship Positions

Nautilus

Last reported at 2014-Sep-06 13:30 UTC. Time now 2014-Dec-22 08:29 UTC.
Position N 44°55' E 035°38'.
Warning: this ship's position is months out of date.

Length 108 m; draft 2.9 m.

Type: Cargo ship. MMSI: 273319030.

Date/timePositionNaut miles runAvg speedWind from/ knotsBaromVisibWave heightAir tempDewpointWater temp
2014-Sep-06 13:30N 44°55' E 035°38'26 6.4
2014-Sep-06 09:32N 44°48' E 035°03'2 0.1
2014-Sep-05 16:27N 44°49' E 035°02'0 0.0
2014-Sep-05 15:33N 44°49' E 035°02'0 0.0
2014-Sep-05 14:22N 44°49' E 035°02'0 0.0
2014-Sep-05 13:14N 44°49' E 035°02'0 0.0
2014-Sep-05 12:32N 44°49' E 035°02'0 0.0
2014-Sep-05 07:15N 44°49' E 035°02'0 0.0
2014-Sep-05 06:33N 44°49' E 035°02'1 0.1
2014-Sep-04 20:33N 44°47' E 035°02'6 5.9
2014-Sep-04 19:33N 44°42' E 034°58'7 6.8
2014-Sep-04 18:33N 44°38' E 034°50'7 6.9
2014-Sep-04 17:33N 44°35' E 034°42'7 7.1
2014-Sep-04 16:33N 44°30' E 034°34'7 7.1
2014-Sep-04 15:33N 44°26' E 034°27'7 6.7
2014-Sep-04 14:33N 44°21' E 034°20'6 6.5
2014-Sep-04 13:33N 44°16' E 034°14'14 6.8
2014-Sep-04 11:33N 44°06' E 034°01'264 6.8
2014-Sep-02 20:33N 41°17' E 029°26'26 6.4
2014-Sep-02 16:27N 40°59' E 028°60'4 4.5
2014-Sep-02 15:33N 40°56' E 028°56'3 2.4
2014-Sep-02 14:26N 40°59' E 028°55'0 0.1
2014-Sep-02 13:33N 40°59' E 028°55'0 0.0
2014-Sep-02 12:28N 40°59' E 028°55'0 0.0
2014-Sep-02 10:23N 40°59' E 028°55'0 0.0
2014-Sep-02 09:30N 40°59' E 028°55'0 0.0
2014-Sep-02 07:13N 40°59' E 028°55'0 0.0
2014-Sep-02 05:32N 40°59' E 028°55'0 0.0
2014-Sep-02 04:33N 40°59' E 028°55'0 0.0
2014-Sep-02 02:10N 40°59' E 028°55'0 0.0
2014-Sep-02 00:23N 40°59' E 028°55'0 0.0
2014-Sep-01 23:12N 40°59' E 028°55'0 0.0
2014-Sep-01 22:25N 40°59' E 028°55'0 0.0
2014-Sep-01 21:31N 40°59' E 028°55'0 0.0
2014-Sep-01 20:32N 40°59' E 028°55'0 0.0
2014-Sep-01 18:04N 40°59' E 028°55'0 0.0
2014-Sep-01 17:16N 40°59' E 028°55'0 0.0
2014-Sep-01 15:29N 40°59' E 028°55'0 0.0
2014-Sep-01 10:33N 40°59' E 028°55'0 0.0
2014-Sep-01 06:23N 40°59' E 028°55'0 0.0
2014-Sep-01 05:24N 40°59' E 028°55'0 0.0
2014-Sep-01 03:25N 40°59' E 028°55'0 0.0
2014-Sep-01 01:15N 40°59' E 028°55'0 0.0
2014-Aug-31 23:28N 40°59' E 028°55'0 0.0
2014-Aug-31 22:29N 40°59' E 028°55'0 0.0
2014-Aug-31 19:19N 40°59' E 028°55'0 0.0
2014-Aug-31 17:32N 40°59' E 028°55'0 0.0
2014-Aug-31 15:33N 40°59' E 028°55'0 0.0
2014-Aug-31 12:23N 40°59' E 028°55'0 0.0
2014-Aug-31 11:30N 40°59' E 028°55'0 0.0
2014-Aug-31 10:13N 40°59' E 028°55'0 0.0
2014-Aug-31 07:15N 40°59' E 028°55'0 0.0
2014-Aug-31 03:17N 40°59' E 028°55'0 0.0
2014-Aug-30 20:28N 40°59' E 028°55'0 0.0
2014-Aug-30 19:17N 40°59' E 028°55'0 0.0
2014-Aug-30 18:29N 40°59' E 028°55'0 0.0
2014-Aug-30 17:33N 40°59' E 028°55'0 0.0
2014-Aug-30 16:28N 40°59' E 028°55'0 0.0
2014-Aug-30 14:11N 40°59' E 028°55'0 0.0
2014-Aug-30 13:30N 40°59' E 028°55'0 0.0
2014-Aug-30 10:26N 40°59' E 028°55'0 0.0
2014-Aug-30 09:26N 40°59' E 028°55'0 0.1
2014-Aug-30 05:28N 40°58' E 028°54'3 2.9
2014-Aug-30 04:33N 40°57' E 028°57'7 6.8
2014-Aug-30 03:33N 40°51' E 029°02'7 7.5
2014-Aug-30 02:33N 40°47' E 029°11'8 7.5
2014-Aug-30 01:33N 40°45' E 029°20'9 8.4
2014-Aug-30 00:30N 40°45' E 029°32'  
Track history (hours):
 
Tides and Currents Weather Stations Pressure Air Temp Water Temp Dewpoint Dewpoint Depression Visibility Wind Speed Wind Dir Waves Ship Positions

Nautilus

Last reported at 2014-Sep-06 13:30 UTC. Time now 2014-Dec-22 08:29 UTC.
Position N 44°55' E 035°38'.
Warning: this ship's position is months out of date.

Length 108 m; draft 2.9 m.

Type: Cargo ship. MMSI: 273319030.

Date/timePositionNaut miles runAvg speedWind from/ knotsBaromVisibWave heightAir tempDewpointWater temp
2014-Sep-06 13:30N 44°55' E 035°38'26 6.4
2014-Sep-06 09:32N 44°48' E 035°03'2 0.1
2014-Sep-05 16:27N 44°49' E 035°02'0 0.0
2014-Sep-05 15:33N 44°49' E 035°02'0 0.0
2014-Sep-05 14:22N 44°49' E 035°02'0 0.0
2014-Sep-05 13:14N 44°49' E 035°02'0 0.0
2014-Sep-05 12:32N 44°49' E 035°02'0 0.0
2014-Sep-05 07:15N 44°49' E 035°02'0 0.0
2014-Sep-05 06:33N 44°49' E 035°02'1 0.1
2014-Sep-04 20:33N 44°47' E 035°02'6 5.9
2014-Sep-04 19:33N 44°42' E 034°58'7 6.8
2014-Sep-04 18:33N 44°38' E 034°50'7 6.9
2014-Sep-04 17:33N 44°35' E 034°42'7 7.1
2014-Sep-04 16:33N 44°30' E 034°34'7 7.1
2014-Sep-04 15:33N 44°26' E 034°27'7 6.7
2014-Sep-04 14:33N 44°21' E 034°20'6 6.5
2014-Sep-04 13:33N 44°16' E 034°14'14 6.8
2014-Sep-04 11:33N 44°06' E 034°01'264 6.8
2014-Sep-02 20:33N 41°17' E 029°26'26 6.4
2014-Sep-02 16:27N 40°59' E 028°60'4 4.5
2014-Sep-02 15:33N 40°56' E 028°56'3 2.4
2014-Sep-02 14:26N 40°59' E 028°55'0 0.1
2014-Sep-02 13:33N 40°59' E 028°55'0 0.0
2014-Sep-02 12:28N 40°59' E 028°55'0 0.0
2014-Sep-02 10:23N 40°59' E 028°55'0 0.0
2014-Sep-02 09:30N 40°59' E 028°55'0 0.0
2014-Sep-02 07:13N 40°59' E 028°55'0 0.0
2014-Sep-02 05:32N 40°59' E 028°55'0 0.0
2014-Sep-02 04:33N 40°59' E 028°55'0 0.0
2014-Sep-02 02:10N 40°59' E 028°55'0 0.0
2014-Sep-02 00:23N 40°59' E 028°55'0 0.0
2014-Sep-01 23:12N 40°59' E 028°55'0 0.0
2014-Sep-01 22:25N 40°59' E 028°55'0 0.0
2014-Sep-01 21:31N 40°59' E 028°55'0 0.0
2014-Sep-01 20:32N 40°59' E 028°55'0 0.0
2014-Sep-01 18:04N 40°59' E 028°55'0 0.0
2014-Sep-01 17:16N 40°59' E 028°55'0 0.0
2014-Sep-01 15:29N 40°59' E 028°55'0 0.0
2014-Sep-01 10:33N 40°59' E 028°55'0 0.0
2014-Sep-01 06:23N 40°59' E 028°55'0 0.0
2014-Sep-01 05:24N 40°59' E 028°55'0 0.0
2014-Sep-01 03:25N 40°59' E 028°55'0 0.0
2014-Sep-01 01:15N 40°59' E 028°55'0 0.0
2014-Aug-31 23:28N 40°59' E 028°55'0 0.0
2014-Aug-31 22:29N 40°59' E 028°55'0 0.0
2014-Aug-31 19:19N 40°59' E 028°55'0 0.0
2014-Aug-31 17:32N 40°59' E 028°55'0 0.0
2014-Aug-31 15:33N 40°59' E 028°55'0 0.0
2014-Aug-31 12:23N 40°59' E 028°55'0 0.0
2014-Aug-31 11:30N 40°59' E 028°55'0 0.0
2014-Aug-31 10:13N 40°59' E 028°55'0 0.0
2014-Aug-31 07:15N 40°59' E 028°55'0 0.0
2014-Aug-31 03:17N 40°59' E 028°55'0 0.0
2014-Aug-30 20:28N 40°59' E 028°55'0 0.0
2014-Aug-30 19:17N 40°59' E 028°55'0 0.0
2014-Aug-30 18:29N 40°59' E 028°55'0 0.0
2014-Aug-30 17:33N 40°59' E 028°55'0 0.0
2014-Aug-30 16:28N 40°59' E 028°55'0 0.0
2014-Aug-30 14:11N 40°59' E 028°55'0 0.0
2014-Aug-30 13:30N 40°59' E 028°55'0 0.0
2014-Aug-30 10:26N 40°59' E 028°55'0 0.0
2014-Aug-30 09:26N 40°59' E 028°55'0 0.1
2014-Aug-30 05:28N 40°58' E 028°54'3 2.9
2014-Aug-30 04:33N 40°57' E 028°57'7 6.8
2014-Aug-30 03:33N 40°51' E 029°02'7 7.5
2014-Aug-30 02:33N 40°47' E 029°11'8 7.5
2014-Aug-30 01:33N 40°45' E 029°20'9 8.4
2014-Aug-30 00:30N 40°45' E 029°32'  

Dump ship's entire track history